sensor_id;sensor_type;location;lat;lon;timestamp;pressure;altitude;pressure_sealevel;temperature;humidity
70206;BME280;57593;55.896;37.396;2022-08-19T00:00:11;99951.69;;;23.54;53.62
70206;BME280;57593;55.896;37.396;2022-08-19T00:00:44;99954.38;;;23.58;53.62
70206;BME280;57593;55.896;37.396;2022-08-19T00:01:15;99952.44;;;23.58;54.08
70206;BME280;57593;55.896;37.396;2022-08-19T00:01:48;99954.00;;;23.56;54.05
70206;BME280;57593;55.896;37.396;2022-08-19T00:02:19;99958.97;;;23.57;53.93
70206;BME280;57593;55.896;37.396;2022-08-19T00:02:49;99953.56;;;23.61;53.81
70206;BME280;57593;55.896;37.396;2022-08-19T00:03:20;99953.59;;;23.57;53.60
70206;BME280;57593;55.896;37.396;2022-08-19T00:03:51;99954.78;;;23.56;53.82
70206;BME280;57593;55.896;37.396;2022-08-19T00:04:25;99960.53;;;23.58;53.85
70206;BME280;57593;55.896;37.396;2022-08-19T00:04:56;99966.53;;;23.69;53.46
70206;BME280;57593;55.896;37.396;2022-08-19T00:05:27;99967.41;;;23.63;53.56
70206;BME280;57593;55.896;37.396;2022-08-19T00:05:57;99970.22;;;23.52;53.86
70206;BME280;57593;55.896;37.396;2022-08-19T00:06:29;99970.16;;;23.59;53.80
70206;BME280;57593;55.896;37.396;2022-08-19T00:07:00;99970.50;;;23.61;53.79
70206;BME280;57593;55.896;37.396;2022-08-19T00:07:31;99968.66;;;23.55;53.98
70206;BME280;57593;55.896;37.396;2022-08-19T00:08:02;99976.41;;;23.49;54.06
70206;BME280;57593;55.896;37.396;2022-08-19T00:08:33;99970.22;;;23.52;53.86
70206;BME280;57593;55.896;37.396;2022-08-19T00:09:06;99970.75;;;23.40;54.22
70206;BME280;57593;55.896;37.396;2022-08-19T00:09:38;99970.28;;;23.48;54.18
70206;BME280;57593;55.896;37.396;2022-08-19T00:10:11;99972.91;;;23.52;54.03
70206;BME280;57593;55.896;37.396;2022-08-19T00:10:42;99970.63;;;23.50;53.90
70206;BME280;57593;55.896;37.396;2022-08-19T00:11:13;99972.16;;;23.51;53.91
70206;BME280;57593;55.896;37.396;2022-08-19T00:11:44;99970.75;;;23.40;54.23
70206;BME280;57593;55.896;37.396;2022-08-19T00:12:15;99968.78;;;23.44;54.00
70206;BME280;57593;55.896;37.396;2022-08-19T00:12:45;99980.31;;;23.44;54.15
70206;BME280;57593;55.896;37.396;2022-08-19T00:13:16;99979.44;;;23.55;53.84
70206;BME280;57593;55.896;37.396;2022-08-19T00:13:47;99971.50;;;23.40;54.02
70206;BME280;57593;55.896;37.396;2022-08-19T00:14:18;99982.66;;;23.42;54.11
70206;BME280;57593;55.896;37.396;2022-08-19T00:14:50;99977.28;;;23.39;54.23
70206;BME280;57593;55.896;37.396;2022-08-19T00:15:21;99971.91;;;23.39;54.61
70206;BME280;57593;55.896;37.396;2022-08-19T00:15:52;99982.53;;;23.53;54.73
70206;BME280;57593;55.896;37.396;2022-08-19T00:16:24;99979.59;;;23.40;54.54
70206;BME280;57593;55.896;37.396;2022-08-19T00:16:55;99981.41;;;23.50;54.50
70206;BME280;57593;55.896;37.396;2022-08-19T00:17:26;99989.72;;;23.29;55.11
70206;BME280;57593;55.896;37.396;2022-08-19T00:17:56;99982.78;;;23.28;54.73
70206;BME280;57593;55.896;37.396;2022-08-19T00:18:27;99979.28;;;23.35;54.57
70206;BME280;57593;55.896;37.396;2022-08-19T00:18:58;99983.41;;;23.43;54.23
70206;BME280;57593;55.896;37.396;2022-08-19T00:19:30;99981.59;;;23.32;54.33
70206;BME280;57593;55.896;37.396;2022-08-19T00:20:02;99982.78;;;23.28;54.39
70206;BME280;57593;55.896;37.396;2022-08-19T00:20:33;99983.19;;;23.26;54.79
70206;BME280;57593;55.896;37.396;2022-08-19T00:21:03;99987.72;;;23.37;54.95
70206;BME280;57593;55.896;37.396;2022-08-19T00:21:39;99983.88;;;23.34;54.54
70206;BME280;57593;55.896;37.396;2022-08-19T00:22:10;99983.19;;;23.26;54.55
70206;BME280;57593;55.896;37.396;2022-08-19T00:22:40;99985.94;;;23.23;54.57
70206;BME280;57593;55.896;37.396;2022-08-19T00:23:11;99985.81;;;23.33;54.49
70206;BME280;57593;55.896;37.396;2022-08-19T00:23:42;99982.84;;;23.24;54.54
70206;BME280;57593;55.896;37.396;2022-08-19T00:24:14;99980.44;;;23.33;54.42
70206;BME280;57593;55.896;37.396;2022-08-19T00:24:45;99983.47;;;23.39;54.24
70206;BME280;57593;55.896;37.396;2022-08-19T00:25:16;99979.69;;;23.29;54.58
70206;BME280;57593;55.896;37.396;2022-08-19T00:25:47;99984.38;;;23.25;54.66
70206;BME280;57593;55.896;37.396;2022-08-19T00:26:18;99977.97;;;23.12;54.88
70206;BME280;57593;55.896;37.396;2022-08-19T00:26:49;99987.78;;;23.33;54.74
70206;BME280;57593;55.896;37.396;2022-08-19T00:27:20;99974.75;;;23.24;54.70
70206;BME280;57593;55.896;37.396;2022-08-19T00:27:51;99979.75;;;23.26;54.70
70206;BME280;57593;55.896;37.396;2022-08-19T00:28:21;99987.13;;;23.18;54.98
70206;BME280;57593;55.896;37.396;2022-08-19T00:28:52;99978.59;;;23.23;55.40
70206;BME280;57593;55.896;37.396;2022-08-19T00:29:24;99980.19;;;23.21;55.14
70206;BME280;57593;55.896;37.396;2022-08-19T00:29:55;99980.25;;;23.13;55.48
70206;BME280;57593;55.896;37.396;2022-08-19T00:30:26;99973.91;;;23.31;54.90
70206;BME280;57593;55.896;37.396;2022-08-19T00:30:58;99973.31;;;23.16;54.90
70206;BME280;57593;55.896;37.396;2022-08-19T00:31:29;99975.91;;;23.23;54.91
70206;BME280;57593;55.896;37.396;2022-08-19T00:32:01;99981.66;;;23.29;54.62
70206;BME280;57593;55.896;37.396;2022-08-19T00:32:32;99981.34;;;23.20;54.84
70206;BME280;57593;55.896;37.396;2022-08-19T00:33:04;99976.28;;;23.25;54.99
70206;BME280;57593;55.896;37.396;2022-08-19T00:33:35;99981.19;;;23.34;54.85
70206;BME280;57593;55.896;37.396;2022-08-19T00:34:06;99977.78;;;23.30;55.32
70206;BME280;57593;55.896;37.396;2022-08-19T00:34:36;99972.06;;;23.24;55.28
70206;BME280;57593;55.896;37.396;2022-08-19T00:35:10;99982.88;;;23.21;55.47
70206;BME280;57593;55.896;37.396;2022-08-19T00:35:41;99977.91;;;23.19;55.60
70206;BME280;57593;55.896;37.396;2022-08-19T00:36:12;99979.84;;;23.15;55.66
70206;BME280;57593;55.896;37.396;2022-08-19T00:36:43;99975.69;;;23.07;55.35
70206;BME280;57593;55.896;37.396;2022-08-19T00:37:13;99977.63;;;23.06;55.38
70206;BME280;57593;55.896;37.396;2022-08-19T00:37:44;99985.97;;;23.19;54.88
70206;BME280;57593;55.896;37.396;2022-08-19T00:38:15;99982.56;;;23.15;54.84
70206;BME280;57593;55.896;37.396;2022-08-19T00:38:45;99981.88;;;23.04;55.32
70206;BME280;57593;55.896;37.396;2022-08-19T00:39:16;99977.59;;;23.10;55.28
70206;BME280;57593;55.896;37.396;2022-08-19T00:39:47;99979.84;;;23.15;54.95
70206;BME280;57593;55.896;37.396;2022-08-19T00:40:19;99992.28;;;23.02;55.98
70206;BME280;57593;55.896;37.396;2022-08-19T00:40:50;99976.47;;;23.04;56.37
70206;BME280;57593;55.896;37.396;2022-08-19T00:41:22;99978.03;;;23.01;55.43
70206;BME280;57593;55.896;37.396;2022-08-19T00:41:53;99978.41;;;23.03;55.63
70206;BME280;57593;55.896;37.396;2022-08-19T00:42:25;99974.19;;;23.02;55.70
70206;BME280;57593;55.896;37.396;2022-08-19T00:42:59;99979.22;;;22.96;55.65
70206;BME280;57593;55.896;37.396;2022-08-19T00:43:29;99972.38;;;22.88;55.70
70206;BME280;57593;55.896;37.396;2022-08-19T00:44:07;99973.16;;;22.89;55.65
70206;BME280;57593;55.896;37.396;2022-08-19T00:44:38;99972.00;;;22.90;55.52
70206;BME280;57593;55.896;37.396;2022-08-19T00:45:16;99984.66;;;22.93;55.66
70206;BME280;57593;55.896;37.396;2022-08-19T00:45:47;99976.63;;;22.86;55.82
70206;BME280;57593;55.896;37.396;2022-08-19T00:46:20;99982.31;;;22.95;55.80
70206;BME280;57593;55.896;37.396;2022-08-19T00:46:51;99985.09;;;22.84;55.76
70206;BME280;57593;55.896;37.396;2022-08-19T00:47:23;99988.09;;;22.93;55.50
70206;BME280;57593;55.896;37.396;2022-08-19T00:47:53;99982.38;;;22.91;55.54
70206;BME280;57593;55.896;37.396;2022-08-19T00:48:24;99986.56;;;22.96;55.54
70206;BME280;57593;55.896;37.396;2022-08-19T00:48:56;99985.41;;;22.97;55.47
70206;BME280;57593;55.896;37.396;2022-08-19T00:49:32;99979.72;;;22.88;55.52
70206;BME280;57593;55.896;37.396;2022-08-19T00:50:06;99986.75;;;22.74;55.48
70206;BME280;57593;55.896;37.396;2022-08-19T00:50:40;99992.09;;;22.78;55.61
70206;BME280;57593;55.896;37.396;2022-08-19T00:51:13;99987.41;;;22.86;55.56
70206;BME280;57593;55.896;37.396;2022-08-19T00:51:48;99989.28;;;22.92;55.37
70206;BME280;57593;55.896;37.396;2022-08-19T00:52:23;99990.88;;;22.86;55.51
70206;BME280;57593;55.896;37.396;2022-08-19T00:52:55;99987.81;;;22.84;55.42
70206;BME280;57593;55.896;37.396;2022-08-19T00:53:28;99994.34;;;22.87;55.58
70206;BME280;57593;55.896;37.396;2022-08-19T00:54:01;99994.84;;;22.71;55.73
70206;BME280;57593;55.896;37.396;2022-08-19T00:54:32;99995.19;;;22.76;55.76
70206;BME280;57593;55.896;37.396;2022-08-19T00:55:06;99991.75;;;22.72;55.74
70206;BME280;57593;55.896;37.396;2022-08-19T00:55:45;99995.91;;;22.80;55.80
70206;BME280;57593;55.896;37.396;2022-08-19T00:56:16;99998.25;;;22.75;55.72
70206;BME280;57593;55.896;37.396;2022-08-19T00:56:49;99995.97;;;22.77;56.00
70206;BME280;57593;55.896;37.396;2022-08-19T00:57:26;99989.19;;;22.54;57.32
70206;BME280;57593;55.896;37.396;2022-08-19T00:58:02;99996.09;;;22.63;56.53
70206;BME280;57593;55.896;37.396;2022-08-19T00:58:35;99992.97;;;22.68;56.66
70206;BME280;57593;55.896;37.396;2022-08-19T00:59:07;99993.00;;;22.60;56.48
70206;BME280;57593;55.896;37.396;2022-08-19T00:59:42;99998.38;;;22.60;56.28
70206;BME280;57593;55.896;37.396;2022-08-19T01:00:18;99990.31;;;22.60;56.15
70206;BME280;57593;55.896;37.396;2022-08-19T01:00:49;99999.44;;;22.74;55.85
70206;BME280;57593;55.896;37.396;2022-08-19T01:01:20;99991.78;;;22.69;55.63
70206;BME280;57593;55.896;37.396;2022-08-19T01:01:50;100004.63;;;22.47;56.34
70206;BME280;57593;55.896;37.396;2022-08-19T01:02:23;99994.91;;;22.64;56.34
70206;BME280;57593;55.896;37.396;2022-08-19T01:02:54;99996.47;;;22.57;56.12
70206;BME280;57593;55.896;37.396;2022-08-19T01:03:25;99995.38;;;22.51;56.05
70206;BME280;57593;55.896;37.396;2022-08-19T01:03:55;99986.94;;;22.49;56.40
70206;BME280;57593;55.896;37.396;2022-08-19T01:04:26;99994.66;;;22.47;56.46
70206;BME280;57593;55.896;37.396;2022-08-19T01:04:57;100000.03;;;22.47;56.54
70206;BME280;57593;55.896;37.396;2022-08-19T01:05:29;100003.09;;;22.49;56.55
70206;BME280;57593;55.896;37.396;2022-08-19T01:06:00;100000.44;;;22.42;56.61
70206;BME280;57593;55.896;37.396;2022-08-19T01:06:32;99998.47;;;22.50;56.19
70206;BME280;57593;55.896;37.396;2022-08-19T01:07:04;99996.19;;;22.44;56.40
70206;BME280;57593;55.896;37.396;2022-08-19T01:07:35;99997.34;;;22.47;56.51
70206;BME280;57593;55.896;37.396;2022-08-19T01:08:08;100005.38;;;22.51;56.52
70206;BME280;57593;55.896;37.396;2022-08-19T01:08:39;100002.75;;;22.40;56.52
70206;BME280;57593;55.896;37.396;2022-08-19T01:09:10;99998.53;;;22.42;56.42
70206;BME280;57593;55.896;37.396;2022-08-19T01:09:41;100003.09;;;22.49;56.09
70206;BME280;57593;55.896;37.396;2022-08-19T01:10:14;100008.91;;;22.44;56.60
70206;BME280;57593;55.896;37.396;2022-08-19T01:10:52;100009.28;;;22.39;56.67
70206;BME280;57593;55.896;37.396;2022-08-19T01:11:26;100003.53;;;22.40;56.47
70206;BME280;57593;55.896;37.396;2022-08-19T01:11:57;100001.97;;;22.43;56.36
70206;BME280;57593;55.896;37.396;2022-08-19T01:12:27;99995.44;;;22.40;56.39
70206;BME280;57593;55.896;37.396;2022-08-19T01:12:59;100005.09;;;22.38;56.57
70206;BME280;57593;55.896;37.396;2022-08-19T01:13:33;100000.88;;;22.30;56.67
70206;BME280;57593;55.896;37.396;2022-08-19T01:14:05;99994.69;;;22.40;56.48
70206;BME280;57593;55.896;37.396;2022-08-19T01:14:38;99996.25;;;22.34;56.43
70206;BME280;57593;55.896;37.396;2022-08-19T01:15:12;99995.44;;;22.40;56.49
70206;BME280;57593;55.896;37.396;2022-08-19T01:15:46;99995.50;;;22.33;57.00
70206;BME280;57593;55.896;37.396;2022-08-19T01:16:21;99992.34;;;22.46;57.46
70206;BME280;57593;55.896;37.396;2022-08-19T01:16:54;99993.56;;;22.34;57.23
70206;BME280;57593;55.896;37.396;2022-08-19T01:17:26;99993.97;;;22.29;57.01
70206;BME280;57593;55.896;37.396;2022-08-19T01:18:04;100004.66;;;22.43;56.54
70206;BME280;57593;55.896;37.396;2022-08-19T01:18:40;99994.72;;;22.36;56.45
70206;BME280;57593;55.896;37.396;2022-08-19T01:19:35;100005.50;;;22.33;56.46
70206;BME280;57593;55.896;37.396;2022-08-19T01:20:11;100015.44;;;22.43;56.40
70206;BME280;57593;55.896;37.396;2022-08-19T01:20:43;100003.22;;;22.20;56.73
70206;BME280;57593;55.896;37.396;2022-08-19T01:22:54;100002.50;;;22.16;56.77
70206;BME280;57593;55.896;37.396;2022-08-19T01:23:25;100006.34;;;22.15;56.91
70206;BME280;57593;55.896;37.396;2022-08-19T01:24:12;100004.03;;;22.14;57.04
70206;BME280;57593;55.896;37.396;2022-08-19T01:24:43;100001.00;;;22.08;57.08
70206;BME280;57593;55.896;37.396;2022-08-19T01:25:22;100012.09;;;22.17;57.04
70206;BME280;57593;55.896;37.396;2022-08-19T01:25:52;100013.25;;;22.13;57.06
70206;BME280;57593;55.896;37.396;2022-08-19T01:26:25;100003.69;;;22.08;57.34
70206;BME280;57593;55.896;37.396;2022-08-19T01:26:57;100005.22;;;22.09;57.07
70206;BME280;57593;55.896;37.396;2022-08-19T01:27:40;100006.00;;;22.06;57.34
70206;BME280;57593;55.896;37.396;2022-08-19T01:28:17;100007.19;;;22.05;57.27
70206;BME280;57593;55.896;37.396;2022-08-19T01:28:50;100010.19;;;22.11;57.32
70206;BME280;57593;55.896;37.396;2022-08-19T01:29:21;100013.72;;;22.04;57.25
70206;BME280;57593;55.896;37.396;2022-08-19T01:29:52;100011.44;;;21.99;57.46
70206;BME280;57593;55.896;37.396;2022-08-19T01:30:34;100013.38;;;21.87;57.93
70206;BME280;57593;55.896;37.396;2022-08-19T01:31:06;100011.81;;;21.94;57.82
70206;BME280;57593;55.896;37.396;2022-08-19T01:31:37;100015.31;;;21.87;57.92
70206;BME280;57593;55.896;37.396;2022-08-19T01:32:12;100011.88;;;21.86;57.97
70206;BME280;57593;55.896;37.396;2022-08-19T01:32:44;100014.16;;;21.88;57.90
70206;BME280;57593;55.896;37.396;2022-08-19T01:33:14;100011.06;;;21.93;57.93
70206;BME280;57593;55.896;37.396;2022-08-19T01:33:46;100013.00;;;21.85;58.11
70206;BME280;57593;55.896;37.396;2022-08-19T01:34:17;100020.31;;;21.81;58.23
70206;BME280;57593;55.896;37.396;2022-08-19T01:34:48;100016.47;;;21.89;58.13
70206;BME280;57593;55.896;37.396;2022-08-19T01:35:20;100017.63;;;21.88;57.89
70206;BME280;57593;55.896;37.396;2022-08-19T01:35:51;100023.34;;;21.90;58.29
70206;BME280;57593;55.896;37.396;2022-08-19T01:37:09;100008.75;;;21.92;58.33
70206;BME280;57593;55.896;37.396;2022-08-19T01:37:52;100019.16;;;21.82;58.38
70206;BME280;57593;55.896;37.396;2022-08-19T01:38:26;100016.50;;;21.75;58.48
70206;BME280;57593;55.896;37.396;2022-08-19T01:39:00;100015.00;;;21.74;58.58
70206;BME280;57593;55.896;37.396;2022-08-19T01:39:31;100015.38;;;21.69;58.50
70206;BME280;57593;55.896;37.396;2022-08-19T01:40:02;100017.66;;;21.70;58.63
70206;BME280;57593;55.896;37.396;2022-08-19T01:40:35;100017.69;;;21.74;58.34
70206;BME280;57593;55.896;37.396;2022-08-19T01:41:06;100012.69;;;21.72;58.59
70206;BME280;57593;55.896;37.396;2022-08-19T01:41:37;100010.78;;;21.69;58.53
70206;BME280;57593;55.896;37.396;2022-08-19T01:42:08;100008.13;;;21.59;58.76
70206;BME280;57593;55.896;37.396;2022-08-19T01:42:41;100009.66;;;21.63;58.74
70206;BME280;57593;55.896;37.396;2022-08-19T01:43:12;100015.03;;;21.56;58.96
70206;BME280;57593;55.896;37.396;2022-08-19T01:43:44;100010.41;;;21.64;58.99
70206;BME280;57593;55.896;37.396;2022-08-19T01:44:15;100010.03;;;21.62;58.83
70206;BME280;57593;55.896;37.396;2022-08-19T01:44:46;100010.78;;;21.69;58.85
70206;BME280;57593;55.896;37.396;2022-08-19T01:45:18;100018.81;;;21.73;58.67
70206;BME280;57593;55.896;37.396;2022-08-19T01:45:49;100010.41;;;21.64;58.86
70206;BME280;57593;55.896;37.396;2022-08-19T01:46:21;100016.91;;;21.70;58.63
70206;BME280;57593;55.896;37.396;2022-08-19T01:46:52;100016.53;;;21.68;58.83
70206;BME280;57593;55.896;37.396;2022-08-19T01:47:23;100016.91;;;21.70;58.56
70206;BME280;57593;55.896;37.396;2022-08-19T01:47:55;100020.38;;;21.74;58.51
70206;BME280;57593;55.896;37.396;2022-08-19T01:48:26;100017.31;;;21.65;58.67
70206;BME280;57593;55.896;37.396;2022-08-19T01:49:00;100021.19;;;21.53;59.10
70206;BME280;57593;55.896;37.396;2022-08-19T01:49:32;100016.16;;;21.62;58.91
70206;BME280;57593;55.896;37.396;2022-08-19T01:50:06;100020.03;;;21.58;58.77
70206;BME280;57593;55.896;37.396;2022-08-19T01:50:37;100021.19;;;21.60;58.87
70206;BME280;57593;55.896;37.396;2022-08-19T01:51:08;100023.47;;;21.54;59.11
70206;BME280;57593;55.896;37.396;2022-08-19T01:51:39;100023.88;;;21.60;59.04
70206;BME280;57593;55.896;37.396;2022-08-19T01:52:10;100021.19;;;21.53;59.04
70206;BME280;57593;55.896;37.396;2022-08-19T01:52:42;100018.13;;;21.47;59.10
70206;BME280;57593;55.896;37.396;2022-08-19T01:53:13;100023.88;;;21.49;59.17
70206;BME280;57593;55.896;37.396;2022-08-19T01:53:47;100019.63;;;21.63;59.01
70206;BME280;57593;55.896;37.396;2022-08-19T01:54:19;100014.28;;;21.52;59.01
70206;BME280;57593;55.896;37.396;2022-08-19T01:54:51;100020.81;;;21.51;59.17
70206;BME280;57593;55.896;37.396;2022-08-19T01:55:21;100017.72;;;21.56;59.00
70206;BME280;57593;55.896;37.396;2022-08-19T01:55:54;100020.78;;;21.62;58.76
70206;BME280;57593;55.896;37.396;2022-08-19T01:56:26;100022.25;;;21.73;58.35
70206;BME280;57593;55.896;37.396;2022-08-19T01:57:06;100030.00;;;21.61;58.54
70206;BME280;57593;55.896;37.396;2022-08-19T01:57:39;100022.34;;;21.52;58.98
70206;BME280;57593;55.896;37.396;2022-08-19T01:58:15;100016.56;;;21.57;59.05
70206;BME280;57593;55.896;37.396;2022-08-19T01:59:10;100026.16;;;21.62;58.92
70206;BME280;57593;55.896;37.396;2022-08-19T01:59:43;100028.09;;;21.54;59.25
70206;BME280;57593;55.896;37.396;2022-08-19T02:00:19;100021.94;;;21.46;59.31
70206;BME280;57593;55.896;37.396;2022-08-19T02:00:50;100023.88;;;21.57;58.99
70206;BME280;57593;55.896;37.396;2022-08-19T02:01:21;100023.13;;;21.52;59.04
70206;BME280;57593;55.896;37.396;2022-08-19T02:01:51;100027.69;;;21.59;58.86
70206;BME280;57593;55.896;37.396;2022-08-19T02:02:22;100031.56;;;21.47;59.23
70206;BME280;57593;55.896;37.396;2022-08-19T02:02:53;100025.78;;;21.45;59.76
70206;BME280;57593;55.896;37.396;2022-08-19T02:03:24;100026.56;;;21.42;59.53
70206;BME280;57593;55.896;37.396;2022-08-19T02:03:55;100025.03;;;21.45;59.41
70206;BME280;57593;55.896;37.396;2022-08-19T02:04:26;100025.00;;;21.48;59.30
70206;BME280;57593;55.896;37.396;2022-08-19T02:04:57;100028.88;;;21.47;59.19
70206;BME280;57593;55.896;37.396;2022-08-19T02:05:29;100020.38;;;21.60;59.11
70206;BME280;57593;55.896;37.396;2022-08-19T02:06:02;100018.88;;;21.51;59.20
70206;BME280;57593;55.896;37.396;2022-08-19T02:06:35;100028.50;;;21.52;58.81
70206;BME280;57593;55.896;37.396;2022-08-19T02:07:07;100027.69;;;21.48;58.95
70206;BME280;57593;55.896;37.396;2022-08-19T02:07:39;100027.34;;;21.50;59.09
70206;BME280;57593;55.896;37.396;2022-08-19T02:08:11;100026.94;;;21.44;59.16
70206;BME280;57593;55.896;37.396;2022-08-19T02:08:42;100031.16;;;21.56;59.18
70206;BME280;57593;55.896;37.396;2022-08-19T02:09:13;100023.47;;;21.54;58.94
70206;BME280;57593;55.896;37.396;2022-08-19T02:09:43;100025.41;;;21.43;59.13
70206;BME280;57593;55.896;37.396;2022-08-19T02:10:17;100023.88;;;21.49;59.35
70206;BME280;57593;55.896;37.396;2022-08-19T02:10:49;100029.25;;;21.46;59.26
70206;BME280;57593;55.896;37.396;2022-08-19T02:11:26;100028.50;;;21.52;59.00
70206;BME280;57593;55.896;37.396;2022-08-19T02:11:57;100028.50;;;21.49;59.00
70206;BME280;57593;55.896;37.396;2022-08-19T02:12:28;100035.78;;;21.52;58.89
70206;BME280;57593;55.896;37.396;2022-08-19T02:12:59;100029.25;;;21.57;59.14
70206;BME280;57593;55.896;37.396;2022-08-19T02:13:30;100031.16;;;21.56;59.48
70206;BME280;57593;55.896;37.396;2022-08-19T02:14:03;100028.47;;;21.56;59.34
70206;BME280;57593;55.896;37.396;2022-08-19T02:14:35;100030.78;;;21.47;59.32
70206;BME280;57593;55.896;37.396;2022-08-19T02:15:07;100036.94;;;21.54;59.14
70206;BME280;57593;55.896;37.396;2022-08-19T02:15:38;100030.38;;;21.59;58.80
70206;BME280;57593;55.896;37.396;2022-08-19T02:16:08;100033.44;;;21.61;58.67
70206;BME280;57593;55.896;37.396;2022-08-19T02:16:40;100030.41;;;21.52;58.87
70206;BME280;57593;55.896;37.396;2022-08-19T02:17:10;100032.28;;;21.66;58.67
70206;BME280;57593;55.896;37.396;2022-08-19T02:17:41;100028.84;;;21.54;58.61
70206;BME280;57593;55.896;37.396;2022-08-19T02:18:12;100022.75;;;21.50;59.11
70206;BME280;57593;55.896;37.396;2022-08-19T02:18:44;100022.75;;;21.50;59.83
70206;BME280;57593;55.896;37.396;2022-08-19T02:19:15;100030.03;;;21.53;60.45
70206;BME280;57593;55.896;37.396;2022-08-19T02:19:45;100031.91;;;21.64;60.50
70206;BME280;57593;55.896;37.396;2022-08-19T02:20:16;100033.06;;;21.66;60.24
70206;BME280;57593;55.896;37.396;2022-08-19T02:20:47;100027.69;;;21.59;60.22
70206;BME280;57593;55.896;37.396;2022-08-19T02:21:19;100031.19;;;21.52;60.63
70206;BME280;57593;55.896;37.396;2022-08-19T02:21:50;100029.63;;;21.51;59.91
70206;BME280;57593;55.896;37.396;2022-08-19T02:22:22;100032.69;;;21.57;59.21
70206;BME280;57593;55.896;37.396;2022-08-19T02:22:52;100040.00;;;21.57;59.87
70206;BME280;57593;55.896;37.396;2022-08-19T02:23:23;100028.47;;;21.63;59.66
70206;BME280;57593;55.896;37.396;2022-08-19T02:23:54;100040.72;;;21.64;58.50
70206;BME280;57593;55.896;37.396;2022-08-19T02:24:26;100034.19;;;21.69;58.98
70206;BME280;57593;55.896;37.396;2022-08-19T02:24:57;100032.69;;;21.68;59.31
70206;BME280;57593;55.896;37.396;2022-08-19T02:25:28;100033.41;;;21.72;58.68
70206;BME280;57593;55.896;37.396;2022-08-19T02:25:58;100034.94;;;21.80;59.33
70206;BME280;57593;55.896;37.396;2022-08-19T02:26:29;100040.69;;;21.82;60.15
70206;BME280;57593;55.896;37.396;2022-08-19T02:27:00;100033.03;;;21.73;58.74
70206;BME280;57593;55.896;37.396;2022-08-19T02:27:30;100036.91;;;21.65;58.52
70206;BME280;57593;55.896;37.396;2022-08-19T02:28:01;100038.81;;;21.61;58.39
70206;BME280;57593;55.896;37.396;2022-08-19T02:28:32;100038.06;;;21.61;58.47
70206;BME280;57593;55.896;37.396;2022-08-19T02:29:04;100042.63;;;21.67;58.38
70206;BME280;57593;55.896;37.396;2022-08-19T02:29:34;100043.44;;;21.68;58.46
70206;BME280;57593;55.896;37.396;2022-08-19T02:30:07;100038.03;;;21.64;58.61
70206;BME280;57593;55.896;37.396;2022-08-19T02:30:38;100039.97;;;21.64;59.02
70206;BME280;57593;55.896;37.396;2022-08-19T02:31:13;100041.09;;;21.73;59.21
70206;BME280;57593;55.896;37.396;2022-08-19T02:31:45;100038.44;;;21.66;59.46
70206;BME280;57593;55.896;37.396;2022-08-19T02:32:17;100038.06;;;21.68;59.32
70206;BME280;57593;55.896;37.396;2022-08-19T02:32:49;100040.69;;;21.75;59.00
70206;BME280;57593;55.896;37.396;2022-08-19T02:33:20;100040.69;;;21.82;58.93
70206;BME280;57593;55.896;37.396;2022-08-19T02:33:51;100035.69;;;21.81;58.85
70206;BME280;57593;55.896;37.396;2022-08-19T02:34:23;100040.31;;;21.80;59.12
70206;BME280;57593;55.896;37.396;2022-08-19T02:34:55;100035.72;;;21.70;59.76
70206;BME280;57593;55.896;37.396;2022-08-19T02:35:26;100031.91;;;21.64;59.75
70206;BME280;57593;55.896;37.396;2022-08-19T02:35:57;100033.03;;;21.70;58.97
70206;BME280;57593;55.896;37.396;2022-08-19T02:36:27;100033.44;;;21.68;59.17
70206;BME280;57593;55.896;37.396;2022-08-19T02:36:58;100035.34;;;21.71;58.44
70206;BME280;57593;55.896;37.396;2022-08-19T02:37:29;100028.81;;;21.69;58.16
70206;BME280;57593;55.896;37.396;2022-08-19T02:38:18;100026.09;;;21.76;58.65
70206;BME280;57593;55.896;37.396;2022-08-19T02:38:58;100029.16;;;21.85;58.40
70206;BME280;57593;55.896;37.396;2022-08-19T02:39:29;100031.06;;;21.81;58.57
70206;BME280;57593;55.896;37.396;2022-08-19T02:40:00;100029.94;;;21.75;58.66
70206;BME280;57593;55.896;37.396;2022-08-19T02:40:32;100035.69;;;21.88;59.11
70206;BME280;57593;55.896;37.396;2022-08-19T02:41:10;100028.41;;;21.70;59.52
70206;BME280;57593;55.896;37.396;2022-08-19T02:41:41;100035.72;;;21.73;58.66
70206;BME280;57593;55.896;37.396;2022-08-19T02:42:12;100039.56;;;21.69;58.28
70206;BME280;57593;55.896;37.396;2022-08-19T02:42:43;100031.91;;;21.64;58.39
70206;BME280;57593;55.896;37.396;2022-08-19T02:43:15;100042.66;;;21.64;58.34
70206;BME280;57593;55.896;37.396;2022-08-19T02:43:46;100043.03;;;21.66;58.08
70206;BME280;57593;55.896;37.396;2022-08-19T02:44:16;100033.44;;;21.65;58.18
70206;BME280;57593;55.896;37.396;2022-08-19T02:44:47;100041.09;;;21.70;58.15
70206;BME280;57593;55.896;37.396;2022-08-19T02:45:18;100034.19;;;21.69;58.07
70206;BME280;57593;55.896;37.396;2022-08-19T02:45:49;100035.72;;;21.73;57.99
70206;BME280;57593;55.896;37.396;2022-08-19T02:46:24;100045.72;;;21.66;57.96
70206;BME280;57593;55.896;37.396;2022-08-19T02:46:57;100040.75;;;21.61;58.31
70206;BME280;57593;55.896;37.396;2022-08-19T02:47:28;100048.03;;;21.71;58.30
70206;BME280;57593;55.896;37.396;2022-08-19T02:47:58;100049.59;;;21.58;58.92
70206;BME280;57593;55.896;37.396;2022-08-19T02:48:29;100051.16;;;21.55;58.82
70206;BME280;57593;55.896;37.396;2022-08-19T02:49:03;100053.78;;;21.69;58.62
70206;BME280;57593;55.896;37.396;2022-08-19T02:49:33;100044.63;;;21.52;58.82
70206;BME280;57593;55.896;37.396;2022-08-19T02:50:05;100048.06;;;21.49;58.57